sensor_id;sensor_type;location;lat;lon;timestamp;P1;durP1;ratioP1;P2;durP2;ratioP2
10333;SDS011;5212;47.892;16.406;2023-04-22T00:01:37;8.60;;;6.60;;
10333;SDS011;5212;47.892;16.406;2023-04-22T00:04:03;8.73;;;6.90;;
10333;SDS011;5212;47.892;16.406;2023-04-22T00:06:31;10.00;;;7.37;;
10333;SDS011;5212;47.892;16.406;2023-04-22T00:08:57;9.33;;;7.43;;
10333;SDS011;5212;47.892;16.406;2023-04-22T00:11:24;9.67;;;7.20;;
10333;SDS011;5212;47.892;16.406;2023-04-22T00:13:50;10.20;;;6.87;;
10333;SDS011;5212;47.892;16.406;2023-04-22T00:16:17;11.33;;;6.70;;
10333;SDS011;5212;47.892;16.406;2023-04-22T00:18:43;8.23;;;6.40;;
10333;SDS011;5212;47.892;16.406;2023-04-22T00:21:10;7.97;;;6.60;;
10333;SDS011;5212;47.892;16.406;2023-04-22T00:23:36;8.50;;;6.73;;
10333;SDS011;5212;47.892;16.406;2023-04-22T00:26:02;8.43;;;7.00;;
10333;SDS011;5212;47.892;16.406;2023-04-22T00:28:29;8.83;;;7.03;;
10333;SDS011;5212;47.892;16.406;2023-04-22T00:30:55;8.33;;;6.67;;
10333;SDS011;5212;47.892;16.406;2023-04-22T00:33:23;11.33;;;7.30;;
10333;SDS011;5212;47.892;16.406;2023-04-22T00:35:50;10.73;;;7.10;;
10333;SDS011;5212;47.892;16.406;2023-04-22T00:38:18;8.57;;;6.83;;
10333;SDS011;5212;47.892;16.406;2023-04-22T00:43:15;10.00;;;7.10;;
10333;SDS011;5212;47.892;16.406;2023-04-22T00:45:42;10.07;;;7.23;;
10333;SDS011;5212;47.892;16.406;2023-04-22T00:48:08;10.13;;;7.23;;
10333;SDS011;5212;47.892;16.406;2023-04-22T00:50:35;10.50;;;7.17;;
10333;SDS011;5212;47.892;16.406;2023-04-22T00:53:02;10.80;;;6.93;;
10333;SDS011;5212;47.892;16.406;2023-04-22T00:55:29;10.30;;;6.97;;
10333;SDS011;5212;47.892;16.406;2023-04-22T00:57:56;7.83;;;6.83;;
10333;SDS011;5212;47.892;16.406;2023-04-22T01:00:23;8.27;;;6.90;;
10333;SDS011;5212;47.892;16.406;2023-04-22T01:02:51;7.00;;;6.30;;
10333;SDS011;5212;47.892;16.406;2023-04-22T01:05:18;10.30;;;7.17;;
10333;SDS011;5212;47.892;16.406;2023-04-22T01:12:56;8.07;;;6.70;;
10333;SDS011;5212;47.892;16.406;2023-04-22T01:15:22;9.60;;;7.13;;
10333;SDS011;5212;47.892;16.406;2023-04-22T01:17:49;9.43;;;7.43;;
10333;SDS011;5212;47.892;16.406;2023-04-22T01:20:17;8.87;;;7.07;;
10333;SDS011;5212;47.892;16.406;2023-04-22T01:22:44;8.47;;;6.70;;
10333;SDS011;5212;47.892;16.406;2023-04-22T01:25:12;9.10;;;7.10;;
10333;SDS011;5212;47.892;16.406;2023-04-22T01:27:39;10.23;;;7.00;;
10333;SDS011;5212;47.892;16.406;2023-04-22T01:30:06;10.13;;;7.47;;
10333;SDS011;5212;47.892;16.406;2023-04-22T01:32:33;10.27;;;6.90;;
10333;SDS011;5212;47.892;16.406;2023-04-22T01:35:00;9.83;;;6.40;;
10333;SDS011;5212;47.892;16.406;2023-04-22T01:37:27;10.47;;;7.00;;
10333;SDS011;5212;47.892;16.406;2023-04-22T01:39:54;7.97;;;6.67;;
10333;SDS011;5212;47.892;16.406;2023-04-22T01:42:21;10.73;;;7.20;;
10333;SDS011;5212;47.892;16.406;2023-04-22T01:44:47;9.23;;;7.10;;
10333;SDS011;5212;47.892;16.406;2023-04-22T01:47:14;8.60;;;6.80;;
10333;SDS011;5212;47.892;16.406;2023-04-22T01:49:40;9.10;;;6.63;;
10333;SDS011;5212;47.892;16.406;2023-04-22T01:52:06;8.47;;;5.90;;
10333;SDS011;5212;47.892;16.406;2023-04-22T01:54:33;9.90;;;6.73;;
10333;SDS011;5212;47.892;16.406;2023-04-22T01:57:01;8.63;;;6.63;;
10333;SDS011;5212;47.892;16.406;2023-04-22T01:59:34;8.93;;;7.17;;
10333;SDS011;5212;47.892;16.406;2023-04-22T02:02:01;9.17;;;6.73;;
10333;SDS011;5212;47.892;16.406;2023-04-22T02:07:03;7.73;;;6.20;;
10333;SDS011;5212;47.892;16.406;2023-04-22T02:09:32;8.33;;;6.33;;
10333;SDS011;5212;47.892;16.406;2023-04-22T02:11:59;8.77;;;6.77;;
10333;SDS011;5212;47.892;16.406;2023-04-22T02:14:26;11.23;;;7.43;;
10333;SDS011;5212;47.892;16.406;2023-04-22T02:16:53;8.43;;;6.47;;
10333;SDS011;5212;47.892;16.406;2023-04-22T02:19:19;9.17;;;7.07;;
10333;SDS011;5212;47.892;16.406;2023-04-22T02:21:46;8.30;;;6.83;;
10333;SDS011;5212;47.892;16.406;2023-04-22T02:24:12;10.93;;;7.93;;
10333;SDS011;5212;47.892;16.406;2023-04-22T02:26:38;8.33;;;7.07;;
10333;SDS011;5212;47.892;16.406;2023-04-22T02:29:05;7.80;;;7.00;;
10333;SDS011;5212;47.892;16.406;2023-04-22T02:31:32;7.33;;;6.40;;
10333;SDS011;5212;47.892;16.406;2023-04-22T02:33:59;6.57;;;5.70;;
10333;SDS011;5212;47.892;16.406;2023-04-22T02:36:25;8.97;;;6.50;;
10333;SDS011;5212;47.892;16.406;2023-04-22T02:38:52;9.83;;;6.67;;
10333;SDS011;5212;47.892;16.406;2023-04-22T02:41:19;7.50;;;5.70;;
10333;SDS011;5212;47.892;16.406;2023-04-22T02:43:45;11.27;;;7.07;;
10333;SDS011;5212;47.892;16.406;2023-04-22T02:46:12;8.20;;;6.90;;
10333;SDS011;5212;47.892;16.406;2023-04-22T02:48:40;6.40;;;5.80;;
10333;SDS011;5212;47.892;16.406;2023-04-22T02:51:07;6.57;;;5.23;;
10333;SDS011;5212;47.892;16.406;2023-04-22T02:53:34;10.07;;;6.27;;
10333;SDS011;5212;47.892;16.406;2023-04-22T02:56:01;10.00;;;6.70;;
10333;SDS011;5212;47.892;16.406;2023-04-22T02:58:27;9.43;;;6.53;;
10333;SDS011;5212;47.892;16.406;2023-04-22T03:00:53;10.63;;;6.83;;
10333;SDS011;5212;47.892;16.406;2023-04-22T03:03:20;8.50;;;6.73;;
10333;SDS011;5212;47.892;16.406;2023-04-22T03:05:47;9.13;;;7.43;;
10333;SDS011;5212;47.892;16.406;2023-04-22T03:08:14;7.00;;;6.30;;
10333;SDS011;5212;47.892;16.406;2023-04-22T03:10:40;9.70;;;7.80;;
10333;SDS011;5212;47.892;16.406;2023-04-22T03:13:06;7.87;;;6.97;;
10333;SDS011;5212;47.892;16.406;2023-04-22T03:15:33;9.07;;;6.83;;
10333;SDS011;5212;47.892;16.406;2023-04-22T03:17:59;10.07;;;6.87;;
10333;SDS011;5212;47.892;16.406;2023-04-22T03:20:26;7.80;;;6.40;;
10333;SDS011;5212;47.892;16.406;2023-04-22T03:22:52;9.00;;;7.17;;
10333;SDS011;5212;47.892;16.406;2023-04-22T03:25:20;8.93;;;6.63;;
10333;SDS011;5212;47.892;16.406;2023-04-22T03:27:46;8.30;;;6.53;;
10333;SDS011;5212;47.892;16.406;2023-04-22T03:30:12;7.70;;;6.73;;
10333;SDS011;5212;47.892;16.406;2023-04-22T03:32:39;8.03;;;6.87;;
10333;SDS011;5212;47.892;16.406;2023-04-22T03:35:06;10.77;;;7.07;;
10333;SDS011;5212;47.892;16.406;2023-04-22T03:37:32;9.43;;;6.73;;
10333;SDS011;5212;47.892;16.406;2023-04-22T03:39:59;8.27;;;6.40;;
10333;SDS011;5212;47.892;16.406;2023-04-22T03:42:26;12.27;;;7.43;;
10333;SDS011;5212;47.892;16.406;2023-04-22T03:44:53;8.03;;;6.80;;
10333;SDS011;5212;47.892;16.406;2023-04-22T03:47:19;9.67;;;7.13;;
10333;SDS011;5212;47.892;16.406;2023-04-22T03:57:31;12.17;;;7.50;;
10333;SDS011;5212;47.892;16.406;2023-04-22T03:59:58;7.20;;;6.27;;
10333;SDS011;5212;47.892;16.406;2023-04-22T04:02:24;8.77;;;6.73;;
10333;SDS011;5212;47.892;16.406;2023-04-22T04:12:27;7.63;;;6.83;;
10333;SDS011;5212;47.892;16.406;2023-04-22T04:14:55;13.03;;;8.27;;
10333;SDS011;5212;47.892;16.406;2023-04-22T04:17:21;9.83;;;7.80;;
10333;SDS011;5212;47.892;16.406;2023-04-22T04:19:50;9.73;;;7.40;;
10333;SDS011;5212;47.892;16.406;2023-04-22T04:27:20;10.93;;;8.80;;
10333;SDS011;5212;47.892;16.406;2023-04-22T04:29:47;10.77;;;8.27;;
10333;SDS011;5212;47.892;16.406;2023-04-22T04:32:15;10.60;;;8.10;;
10333;SDS011;5212;47.892;16.406;2023-04-22T04:37:17;9.07;;;7.63;;
10333;SDS011;5212;47.892;16.406;2023-04-22T04:39:44;9.60;;;7.87;;
10333;SDS011;5212;47.892;16.406;2023-04-22T04:42:10;9.80;;;7.23;;
10333;SDS011;5212;47.892;16.406;2023-04-22T04:44:38;12.57;;;7.70;;
10333;SDS011;5212;47.892;16.406;2023-04-22T04:47:04;9.13;;;7.07;;
10333;SDS011;5212;47.892;16.406;2023-04-22T04:49:32;10.63;;;7.80;;
10333;SDS011;5212;47.892;16.406;2023-04-22T04:52:03;11.37;;;7.97;;
10333;SDS011;5212;47.892;16.406;2023-04-22T04:54:30;8.67;;;6.97;;
10333;SDS011;5212;47.892;16.406;2023-04-22T04:59:31;9.57;;;7.30;;
10333;SDS011;5212;47.892;16.406;2023-04-22T05:01:58;11.23;;;7.70;;
10333;SDS011;5212;47.892;16.406;2023-04-22T05:06:54;10.60;;;8.23;;
10333;SDS011;5212;47.892;16.406;2023-04-22T05:09:21;8.80;;;7.43;;
10333;SDS011;5212;47.892;16.406;2023-04-22T05:14:22;9.10;;;8.00;;
10333;SDS011;5212;47.892;16.406;2023-04-22T05:22:00;10.67;;;8.10;;
10333;SDS011;5212;47.892;16.406;2023-04-22T05:24:26;11.23;;;7.80;;
10333;SDS011;5212;47.892;16.406;2023-04-22T05:26:53;10.03;;;7.57;;
10333;SDS011;5212;47.892;16.406;2023-04-22T05:29:19;10.50;;;7.80;;
10333;SDS011;5212;47.892;16.406;2023-04-22T05:31:45;12.63;;;8.53;;
10333;SDS011;5212;47.892;16.406;2023-04-22T05:34:12;11.03;;;8.37;;
10333;SDS011;5212;47.892;16.406;2023-04-22T05:36:38;10.60;;;8.27;;
10333;SDS011;5212;47.892;16.406;2023-04-22T05:39:06;9.90;;;7.63;;
10333;SDS011;5212;47.892;16.406;2023-04-22T05:41:32;9.13;;;7.13;;
10333;SDS011;5212;47.892;16.406;2023-04-22T05:43:59;9.87;;;7.87;;
10333;SDS011;5212;47.892;16.406;2023-04-22T05:46:25;10.97;;;8.07;;
10333;SDS011;5212;47.892;16.406;2023-04-22T05:48:52;12.60;;;8.97;;
10333;SDS011;5212;47.892;16.406;2023-04-22T05:53:55;10.33;;;8.30;;
10333;SDS011;5212;47.892;16.406;2023-04-22T05:56:22;11.47;;;9.27;;
10333;SDS011;5212;47.892;16.406;2023-04-22T05:58:49;9.57;;;8.57;;
10333;SDS011;5212;47.892;16.406;2023-04-22T06:01:15;10.67;;;9.20;;
10333;SDS011;5212;47.892;16.406;2023-04-22T06:03:42;11.77;;;8.90;;
10333;SDS011;5212;47.892;16.406;2023-04-22T06:06:09;12.83;;;9.10;;
10333;SDS011;5212;47.892;16.406;2023-04-22T06:08:35;24.67;;;17.10;;
10333;SDS011;5212;47.892;16.406;2023-04-22T06:11:01;31.80;;;20.10;;
10333;SDS011;5212;47.892;16.406;2023-04-22T06:13:29;21.67;;;13.90;;
10333;SDS011;5212;47.892;16.406;2023-04-22T06:15:55;50.30;;;30.90;;
10333;SDS011;5212;47.892;16.406;2023-04-22T06:18:21;28.30;;;15.87;;
10333;SDS011;5212;47.892;16.406;2023-04-22T06:20:47;15.30;;;11.37;;
10333;SDS011;5212;47.892;16.406;2023-04-22T06:23:14;12.70;;;9.63;;
10333;SDS011;5212;47.892;16.406;2023-04-22T06:25:50;12.80;;;9.27;;
10333;SDS011;5212;47.892;16.406;2023-04-22T06:28:16;10.23;;;8.83;;
10333;SDS011;5212;47.892;16.406;2023-04-22T06:30:43;16.07;;;10.17;;
10333;SDS011;5212;47.892;16.406;2023-04-22T06:33:10;11.60;;;9.00;;
10333;SDS011;5212;47.892;16.406;2023-04-22T06:35:37;11.63;;;8.80;;
10333;SDS011;5212;47.892;16.406;2023-04-22T06:38:04;12.90;;;8.77;;
10333;SDS011;5212;47.892;16.406;2023-04-22T06:40:30;10.13;;;8.83;;
10333;SDS011;5212;47.892;16.406;2023-04-22T06:42:57;12.23;;;8.20;;
10333;SDS011;5212;47.892;16.406;2023-04-22T06:45:24;12.30;;;9.13;;
10333;SDS011;5212;47.892;16.406;2023-04-22T06:47:51;10.53;;;8.30;;
10333;SDS011;5212;47.892;16.406;2023-04-22T06:50:21;12.30;;;8.40;;
10333;SDS011;5212;47.892;16.406;2023-04-22T06:52:48;10.80;;;8.23;;
10333;SDS011;5212;47.892;16.406;2023-04-22T06:55:14;9.60;;;8.60;;
10333;SDS011;5212;47.892;16.406;2023-04-22T06:57:40;10.63;;;7.70;;
10333;SDS011;5212;47.892;16.406;2023-04-22T07:00:07;11.60;;;8.73;;
10333;SDS011;5212;47.892;16.406;2023-04-22T07:02:34;10.40;;;7.77;;
10333;SDS011;5212;47.892;16.406;2023-04-22T07:05:02;10.83;;;8.33;;
10333;SDS011;5212;47.892;16.406;2023-04-22T07:07:30;10.67;;;8.10;;
10333;SDS011;5212;47.892;16.406;2023-04-22T07:09:59;11.70;;;7.33;;
10333;SDS011;5212;47.892;16.406;2023-04-22T07:12:26;9.60;;;6.83;;
10333;SDS011;5212;47.892;16.406;2023-04-22T07:14:53;9.23;;;7.17;;
10333;SDS011;5212;47.892;16.406;2023-04-22T07:17:20;9.73;;;7.03;;
10333;SDS011;5212;47.892;16.406;2023-04-22T07:19:47;9.73;;;7.53;;
10333;SDS011;5212;47.892;16.406;2023-04-22T07:24:49;9.37;;;8.10;;
10333;SDS011;5212;47.892;16.406;2023-04-22T07:27:16;12.23;;;8.50;;
10333;SDS011;5212;47.892;16.406;2023-04-22T07:29:42;9.83;;;7.73;;
10333;SDS011;5212;47.892;16.406;2023-04-22T07:32:09;9.20;;;8.30;;
10333;SDS011;5212;47.892;16.406;2023-04-22T07:34:35;10.70;;;8.33;;
10333;SDS011;5212;47.892;16.406;2023-04-22T07:37:01;12.73;;;8.50;;
10333;SDS011;5212;47.892;16.406;2023-04-22T07:39:29;12.20;;;8.83;;
10333;SDS011;5212;47.892;16.406;2023-04-22T07:41:56;11.53;;;7.50;;
10333;SDS011;5212;47.892;16.406;2023-04-22T07:44:22;10.03;;;7.03;;
10333;SDS011;5212;47.892;16.406;2023-04-22T07:46:49;10.80;;;8.00;;
10333;SDS011;5212;47.892;16.406;2023-04-22T07:51:50;15.13;;;9.10;;
10333;SDS011;5212;47.892;16.406;2023-04-22T07:54:18;9.87;;;7.60;;
10333;SDS011;5212;47.892;16.406;2023-04-22T07:56:44;13.13;;;8.63;;
10333;SDS011;5212;47.892;16.406;2023-04-22T07:59:12;13.10;;;8.20;;
10333;SDS011;5212;47.892;16.406;2023-04-22T08:09:26;11.03;;;8.07;;
10333;SDS011;5212;47.892;16.406;2023-04-22T08:11:54;10.07;;;7.33;;
10333;SDS011;5212;47.892;16.406;2023-04-22T08:14:21;12.10;;;8.07;;
10333;SDS011;5212;47.892;16.406;2023-04-22T08:16:49;11.93;;;7.93;;
10333;SDS011;5212;47.892;16.406;2023-04-22T08:19:17;8.10;;;6.70;;
10333;SDS011;5212;47.892;16.406;2023-04-22T08:21:44;7.97;;;5.60;;
10333;SDS011;5212;47.892;16.406;2023-04-22T08:24:10;7.37;;;6.33;;
10333;SDS011;5212;47.892;16.406;2023-04-22T08:26:37;13.07;;;5.80;;
10333;SDS011;5212;47.892;16.406;2023-04-22T08:29:04;7.53;;;5.00;;
10333;SDS011;5212;47.892;16.406;2023-04-22T08:31:32;4.60;;;4.20;;
10333;SDS011;5212;47.892;16.406;2023-04-22T08:33:59;5.83;;;4.00;;
10333;SDS011;5212;47.892;16.406;2023-04-22T08:36:26;8.00;;;4.40;;
10333;SDS011;5212;47.892;16.406;2023-04-22T08:38:53;9.83;;;4.80;;
10333;SDS011;5212;47.892;16.406;2023-04-22T08:41:19;5.97;;;5.20;;
10333;SDS011;5212;47.892;16.406;2023-04-22T08:43:48;5.67;;;4.67;;
10333;SDS011;5212;47.892;16.406;2023-04-22T08:46:15;8.43;;;4.57;;
10333;SDS011;5212;47.892;16.406;2023-04-22T08:48:45;7.80;;;4.87;;
10333;SDS011;5212;47.892;16.406;2023-04-22T08:51:12;11.63;;;5.13;;
10333;SDS011;5212;47.892;16.406;2023-04-22T08:53:41;5.17;;;4.30;;
10333;SDS011;5212;47.892;16.406;2023-04-22T08:56:08;5.60;;;5.00;;
10333;SDS011;5212;47.892;16.406;2023-04-22T08:58:36;6.23;;;4.43;;
10333;SDS011;5212;47.892;16.406;2023-04-22T09:01:02;8.33;;;4.60;;
10333;SDS011;5212;47.892;16.406;2023-04-22T09:03:30;7.73;;;4.67;;
10333;SDS011;5212;47.892;16.406;2023-04-22T09:05:58;5.37;;;4.20;;
10333;SDS011;5212;47.892;16.406;2023-04-22T09:08:25;25.60;;;7.63;;
10333;SDS011;5212;47.892;16.406;2023-04-22T09:16:00;50.13;;;10.80;;
10333;SDS011;5212;47.892;16.406;2023-04-22T09:21:01;7.80;;;4.70;;
10333;SDS011;5212;47.892;16.406;2023-04-22T09:23:29;9.70;;;5.33;;
10333;SDS011;5212;47.892;16.406;2023-04-22T09:25:55;9.83;;;4.97;;
10333;SDS011;5212;47.892;16.406;2023-04-22T09:28:22;7.37;;;5.10;;
10333;SDS011;5212;47.892;16.406;2023-04-22T09:30:49;7.87;;;5.03;;
10333;SDS011;5212;47.892;16.406;2023-04-22T09:33:15;7.20;;;4.80;;
10333;SDS011;5212;47.892;16.406;2023-04-22T09:35:42;8.00;;;4.57;;
10333;SDS011;5212;47.892;16.406;2023-04-22T09:38:10;6.07;;;4.70;;
10333;SDS011;5212;47.892;16.406;2023-04-22T09:40:39;6.83;;;4.43;;
10333;SDS011;5212;47.892;16.406;2023-04-22T09:43:07;6.73;;;4.33;;
10333;SDS011;5212;47.892;16.406;2023-04-22T09:45:34;5.53;;;4.13;;
10333;SDS011;5212;47.892;16.406;2023-04-22T09:48:02;8.60;;;4.60;;
10333;SDS011;5212;47.892;16.406;2023-04-22T09:50:32;8.03;;;4.63;;
10333;SDS011;5212;47.892;16.406;2023-04-22T09:52:59;8.00;;;4.47;;
10333;SDS011;5212;47.892;16.406;2023-04-22T09:55:28;8.03;;;4.60;;
10333;SDS011;5212;47.892;16.406;2023-04-22T09:58:04;7.83;;;4.93;;
10333;SDS011;5212;47.892;16.406;2023-04-22T10:00:33;9.73;;;4.63;;
10333;SDS011;5212;47.892;16.406;2023-04-22T10:03:01;10.10;;;5.03;;
10333;SDS011;5212;47.892;16.406;2023-04-22T10:05:28;5.07;;;4.07;;
10333;SDS011;5212;47.892;16.406;2023-04-22T10:07:55;6.53;;;4.07;;
10333;SDS011;5212;47.892;16.406;2023-04-22T10:10:21;8.10;;;4.80;;
10333;SDS011;5212;47.892;16.406;2023-04-22T10:12:50;7.40;;;4.30;;
10333;SDS011;5212;47.892;16.406;2023-04-22T10:15:17;5.40;;;4.10;;
10333;SDS011;5212;47.892;16.406;2023-04-22T10:17:44;5.87;;;4.17;;
10333;SDS011;5212;47.892;16.406;2023-04-22T10:20:12;9.37;;;4.20;;
10333;SDS011;5212;47.892;16.406;2023-04-22T10:22:41;7.43;;;3.67;;
10333;SDS011;5212;47.892;16.406;2023-04-22T10:25:12;6.17;;;3.53;;
10333;SDS011;5212;47.892;16.406;2023-04-22T10:27:38;4.10;;;3.60;;
10333;SDS011;5212;47.892;16.406;2023-04-22T10:30:07;4.03;;;3.33;;
10333;SDS011;5212;47.892;16.406;2023-04-22T10:32:34;3.83;;;3.23;;
10333;SDS011;5212;47.892;16.406;2023-04-22T10:35:08;3.93;;;3.40;;
10333;SDS011;5212;47.892;16.406;2023-04-22T10:37:36;6.67;;;4.00;;
10333;SDS011;5212;47.892;16.406;2023-04-22T10:40:05;6.30;;;3.70;;
10333;SDS011;5212;47.892;16.406;2023-04-22T10:42:33;5.03;;;3.67;;
10333;SDS011;5212;47.892;16.406;2023-04-22T10:45:00;4.27;;;3.13;;
10333;SDS011;5212;47.892;16.406;2023-04-22T10:47:29;3.80;;;3.03;;
10333;SDS011;5212;47.892;16.406;2023-04-22T10:50:09;3.53;;;2.80;;
10333;SDS011;5212;47.892;16.406;2023-04-22T10:52:40;4.70;;;3.50;;
10333;SDS011;5212;47.892;16.406;2023-04-22T10:55:07;4.23;;;3.10;;
10333;SDS011;5212;47.892;16.406;2023-04-22T11:03:13;5.23;;;3.27;;
10333;SDS011;5212;47.892;16.406;2023-04-22T11:05:41;5.33;;;3.50;;
10333;SDS011;5212;47.892;16.406;2023-04-22T11:08:11;4.83;;;3.37;;
10333;SDS011;5212;47.892;16.406;2023-04-22T11:15:45;4.13;;;3.33;;
10333;SDS011;5212;47.892;16.406;2023-04-22T11:18:15;4.17;;;3.10;;
10333;SDS011;5212;47.892;16.406;2023-04-22T11:23:19;6.23;;;3.33;;
10333;SDS011;5212;47.892;16.406;2023-04-22T11:25:47;6.37;;;3.37;;
10333;SDS011;5212;47.892;16.406;2023-04-22T11:28:13;5.30;;;3.30;;
10333;SDS011;5212;47.892;16.406;2023-04-22T11:30:40;4.53;;;3.47;;
10333;SDS011;5212;47.892;16.406;2023-04-22T11:33:06;5.77;;;3.13;;
10333;SDS011;5212;47.892;16.406;2023-04-22T11:40:48;4.50;;;3.40;;
10333;SDS011;5212;47.892;16.406;2023-04-22T11:45:49;5.57;;;3.60;;
10333;SDS011;5212;47.892;16.406;2023-04-22T11:48:16;7.10;;;3.60;;
10333;SDS011;5212;47.892;16.406;2023-04-22T11:50:42;3.17;;;2.87;;
10333;SDS011;5212;47.892;16.406;2023-04-22T11:55:48;6.65;;;3.50;;
10333;SDS011;5212;47.892;16.406;2023-04-22T11:58:26;3.77;;;3.20;;
10333;SDS011;5212;47.892;16.406;2023-04-22T12:00:53;3.80;;;3.40;;
10333;SDS011;5212;47.892;16.406;2023-04-22T12:03:20;6.87;;;3.43;;
10333;SDS011;5212;47.892;16.406;2023-04-22T12:08:23;5.00;;;3.53;;
10333;SDS011;5212;47.892;16.406;2023-04-22T12:10:52;4.90;;;3.50;;
10333;SDS011;5212;47.892;16.406;2023-04-22T12:13:20;6.07;;;3.50;;
10333;SDS011;5212;47.892;16.406;2023-04-22T12:18:16;7.73;;;3.33;;
10333;SDS011;5212;47.892;16.406;2023-04-22T12:20:53;4.97;;;3.27;;
10333;SDS011;5212;47.892;16.406;2023-04-22T12:23:24;7.07;;;3.67;;
10333;SDS011;5212;47.892;16.406;2023-04-22T12:25:51;5.37;;;3.70;;
10333;SDS011;5212;47.892;16.406;2023-04-22T12:28:18;5.60;;;3.80;;
10333;SDS011;5212;47.892;16.406;2023-04-22T12:30:44;10.03;;;3.67;;
10333;SDS011;5212;47.892;16.406;2023-04-22T12:33:10;4.43;;;3.17;;
10333;SDS011;5212;47.892;16.406;2023-04-22T12:35:39;4.07;;;3.23;;
10333;SDS011;5212;47.892;16.406;2023-04-22T12:38:05;5.20;;;3.10;;
10333;SDS011;5212;47.892;16.406;2023-04-22T12:40:32;5.63;;;3.60;;
10333;SDS011;5212;47.892;16.406;2023-04-22T12:43:00;5.33;;;3.70;;
10333;SDS011;5212;47.892;16.406;2023-04-22T12:45:29;4.43;;;3.40;;
10333;SDS011;5212;47.892;16.406;2023-04-22T12:47:56;4.57;;;3.30;;
10333;SDS011;5212;47.892;16.406;2023-04-22T12:50:23;3.83;;;3.47;;
10333;SDS011;5212;47.892;16.406;2023-04-22T12:52:49;7.27;;;3.70;;
10333;SDS011;5212;47.892;16.406;2023-04-22T12:55:16;5.83;;;3.50;;
10333;SDS011;5212;47.892;16.406;2023-04-22T12:57:43;3.90;;;3.37;;
10333;SDS011;5212;47.892;16.406;2023-04-22T13:02:42;5.90;;;3.60;;
10333;SDS011;5212;47.892;16.406;2023-04-22T13:05:10;6.53;;;3.10;;
10333;SDS011;5212;47.892;16.406;2023-04-22T13:07:37;4.80;;;3.20;;
10333;SDS011;5212;47.892;16.406;2023-04-22T13:17:51;5.00;;;3.80;;
10333;SDS011;5212;47.892;16.406;2023-04-22T13:33:15;8.53;;;3.43;;
10333;SDS011;5212;47.892;16.406;2023-04-22T13:35:41;5.37;;;2.97;;
10333;SDS011;5212;47.892;16.406;2023-04-22T13:38:08;4.97;;;2.97;;
10333;SDS011;5212;47.892;16.406;2023-04-22T13:58:34;8.97;;;3.70;;
10333;SDS011;5212;47.892;16.406;2023-04-22T14:03:36;5.17;;;3.23;;
10333;SDS011;5212;47.892;16.406;2023-04-22T14:08:38;4.13;;;3.03;;
10333;SDS011;5212;47.892;16.406;2023-04-22T14:18:51;5.20;;;2.90;;
10333;SDS011;5212;47.892;16.406;2023-04-22T14:21:18;6.97;;;3.20;;
10333;SDS011;5212;47.892;16.406;2023-04-22T14:39:17;3.87;;;2.80;;
10333;SDS011;5212;47.892;16.406;2023-04-22T14:41:43;6.13;;;3.10;;
10333;SDS011;5212;47.892;16.406;2023-04-22T14:44:10;3.40;;;2.90;;
10333;SDS011;5212;47.892;16.406;2023-04-22T15:12:28;5.97;;;3.27;;
10333;SDS011;5212;47.892;16.406;2023-04-22T15:14:54;6.17;;;3.33;;
10333;SDS011;5212;47.892;16.406;2023-04-22T15:22:31;3.83;;;3.10;;
10333;SDS011;5212;47.892;16.406;2023-04-22T15:27:34;4.80;;;3.33;;
10333;SDS011;5212;47.892;16.406;2023-04-22T15:35:12;5.80;;;3.20;;
10333;SDS011;5212;47.892;16.406;2023-04-22T15:37:39;5.73;;;3.50;;
10333;SDS011;5212;47.892;16.406;2023-04-22T15:40:06;5.00;;;3.10;;
10333;SDS011;5212;47.892;16.406;2023-04-22T16:00:36;4.23;;;3.40;;
10333;SDS011;5212;47.892;16.406;2023-04-22T16:03:02;6.33;;;3.23;;
10333;SDS011;5212;47.892;16.406;2023-04-22T16:05:29;5.77;;;3.70;;
10333;SDS011;5212;47.892;16.406;2023-04-22T16:07:56;3.63;;;2.80;;
10333;SDS011;5212;47.892;16.406;2023-04-22T16:10:25;5.07;;;3.10;;
10333;SDS011;5212;47.892;16.406;2023-04-22T16:12:52;3.47;;;3.00;;
10333;SDS011;5212;47.892;16.406;2023-04-22T16:15:18;4.37;;;3.10;;
10333;SDS011;5212;47.892;16.406;2023-04-22T16:17:48;9.90;;;3.17;;
10333;SDS011;5212;47.892;16.406;2023-04-22T16:20:14;6.10;;;3.20;;
10333;SDS011;5212;47.892;16.406;2023-04-22T16:22:43;4.97;;;3.17;;
10333;SDS011;5212;47.892;16.406;2023-04-22T16:25:12;5.93;;;3.63;;
10333;SDS011;5212;47.892;16.406;2023-04-22T16:27:38;5.97;;;3.20;;
